sensor_id;sensor_type;location;lat;lon;timestamp;P1;durP1;ratioP1;P2;durP2;ratioP2
14326;SDS011;7247;53.330;-1.180;2023-04-15T00:01:41;18.93;;;13.77;;
14326;SDS011;7247;53.330;-1.180;2023-04-15T00:04:09;19.17;;;13.50;;
14326;SDS011;7247;53.330;-1.180;2023-04-15T00:06:35;19.70;;;14.30;;
14326;SDS011;7247;53.330;-1.180;2023-04-15T00:09:02;18.83;;;13.23;;
14326;SDS011;7247;53.330;-1.180;2023-04-15T00:11:28;19.17;;;14.17;;
14326;SDS011;7247;53.330;-1.180;2023-04-15T00:13:56;18.67;;;13.50;;
14326;SDS011;7247;53.330;-1.180;2023-04-15T00:16:24;17.30;;;12.83;;
14326;SDS011;7247;53.330;-1.180;2023-04-15T00:18:50;19.80;;;12.90;;
14326;SDS011;7247;53.330;-1.180;2023-04-15T00:21:17;20.23;;;13.87;;
14326;SDS011;7247;53.330;-1.180;2023-04-15T00:23:43;21.47;;;14.93;;
14326;SDS011;7247;53.330;-1.180;2023-04-15T00:26:13;20.60;;;15.23;;
14326;SDS011;7247;53.330;-1.180;2023-04-15T00:28:40;20.80;;;15.97;;
14326;SDS011;7247;53.330;-1.180;2023-04-15T00:31:07;21.33;;;15.50;;
14326;SDS011;7247;53.330;-1.180;2023-04-15T00:33:34;24.33;;;16.40;;
14326;SDS011;7247;53.330;-1.180;2023-04-15T00:36:01;23.37;;;17.30;;
14326;SDS011;7247;53.330;-1.180;2023-04-15T00:38:28;25.77;;;18.07;;
14326;SDS011;7247;53.330;-1.180;2023-04-15T00:40:55;27.07;;;18.33;;
14326;SDS011;7247;53.330;-1.180;2023-04-15T00:43:21;24.97;;;17.97;;
14326;SDS011;7247;53.330;-1.180;2023-04-15T00:45:48;25.63;;;18.00;;
14326;SDS011;7247;53.330;-1.180;2023-04-15T00:48:16;26.00;;;18.33;;
14326;SDS011;7247;53.330;-1.180;2023-04-15T00:50:42;23.93;;;18.47;;
14326;SDS011;7247;53.330;-1.180;2023-04-15T00:53:09;34.20;;;27.58;;
14326;SDS011;7247;53.330;-1.180;2023-04-15T00:55:35;33.53;;;27.08;;
14326;SDS011;7247;53.330;-1.180;2023-04-15T00:58:02;32.37;;;26.23;;
14326;SDS011;7247;53.330;-1.180;2023-04-15T01:00:29;26.73;;;23.67;;
14326;SDS011;7247;53.330;-1.180;2023-04-15T01:02:55;26.38;;;23.48;;
14326;SDS011;7247;53.330;-1.180;2023-04-15T01:05:23;25.30;;;22.48;;
14326;SDS011;7247;53.330;-1.180;2023-04-15T01:07:49;23.95;;;21.42;;
14326;SDS011;7247;53.330;-1.180;2023-04-15T01:10:16;24.42;;;21.27;;
14326;SDS011;7247;53.330;-1.180;2023-04-15T01:12:42;25.10;;;22.40;;
14326;SDS011;7247;53.330;-1.180;2023-04-15T01:15:09;27.38;;;24.42;;
14326;SDS011;7247;53.330;-1.180;2023-04-15T01:17:36;31.73;;;27.63;;
14326;SDS011;7247;53.330;-1.180;2023-04-15T01:20:03;33.58;;;28.55;;
14326;SDS011;7247;53.330;-1.180;2023-04-15T01:22:30;33.67;;;28.70;;
14326;SDS011;7247;53.330;-1.180;2023-04-15T01:25:00;31.50;;;27.67;;
14326;SDS011;7247;53.330;-1.180;2023-04-15T01:27:30;32.42;;;27.73;;
14326;SDS011;7247;53.330;-1.180;2023-04-15T01:29:56;30.25;;;26.23;;
14326;SDS011;7247;53.330;-1.180;2023-04-15T01:32:23;32.08;;;27.65;;
14326;SDS011;7247;53.330;-1.180;2023-04-15T01:34:49;32.08;;;28.25;;
14326;SDS011;7247;53.330;-1.180;2023-04-15T01:37:16;34.05;;;29.05;;
14326;SDS011;7247;53.330;-1.180;2023-04-15T01:39:42;31.17;;;27.60;;
14326;SDS011;7247;53.330;-1.180;2023-04-15T01:42:08;28.35;;;25.35;;
14326;SDS011;7247;53.330;-1.180;2023-04-15T01:44:37;27.40;;;24.50;;
14326;SDS011;7247;53.330;-1.180;2023-04-15T01:47:03;25.90;;;23.20;;
14326;SDS011;7247;53.330;-1.180;2023-04-15T01:49:31;24.95;;;22.40;;
14326;SDS011;7247;53.330;-1.180;2023-04-15T01:51:57;25.58;;;22.88;;
14326;SDS011;7247;53.330;-1.180;2023-04-15T01:54:24;24.70;;;22.10;;
14326;SDS011;7247;53.330;-1.180;2023-04-15T01:56:51;23.80;;;21.35;;
14326;SDS011;7247;53.330;-1.180;2023-04-15T01:59:17;24.63;;;22.00;;
14326;SDS011;7247;53.330;-1.180;2023-04-15T02:01:45;23.05;;;20.67;;
14326;SDS011;7247;53.330;-1.180;2023-04-15T02:04:11;21.73;;;19.53;;
14326;SDS011;7247;53.330;-1.180;2023-04-15T02:06:40;21.10;;;18.90;;
14326;SDS011;7247;53.330;-1.180;2023-04-15T02:09:07;20.87;;;18.77;;
14326;SDS011;7247;53.330;-1.180;2023-04-15T02:11:33;19.15;;;17.25;;
14326;SDS011;7247;53.330;-1.180;2023-04-15T02:14:01;18.80;;;16.90;;
14326;SDS011;7247;53.330;-1.180;2023-04-15T02:16:28;20.43;;;18.40;;
14326;SDS011;7247;53.330;-1.180;2023-04-15T02:18:56;19.70;;;17.77;;
14326;SDS011;7247;53.330;-1.180;2023-04-15T02:21:22;20.30;;;18.30;;
14326;SDS011;7247;53.330;-1.180;2023-04-15T02:23:48;20.33;;;18.17;;
14326;SDS011;7247;53.330;-1.180;2023-04-15T02:26:15;20.00;;;18.10;;
14326;SDS011;7247;53.330;-1.180;2023-04-15T02:28:41;21.15;;;19.08;;
14326;SDS011;7247;53.330;-1.180;2023-04-15T02:31:08;21.80;;;19.67;;
14326;SDS011;7247;53.330;-1.180;2023-04-15T02:33:34;20.60;;;18.70;;
14326;SDS011;7247;53.330;-1.180;2023-04-15T02:36:03;21.73;;;19.63;;
14326;SDS011;7247;53.330;-1.180;2023-04-15T02:38:30;22.67;;;20.40;;
14326;SDS011;7247;53.330;-1.180;2023-04-15T02:40:57;22.52;;;20.30;;
14326;SDS011;7247;53.330;-1.180;2023-04-15T02:43:23;23.13;;;20.73;;
14326;SDS011;7247;53.330;-1.180;2023-04-15T02:45:49;22.85;;;20.75;;
14326;SDS011;7247;53.330;-1.180;2023-04-15T02:48:16;23.45;;;21.27;;
14326;SDS011;7247;53.330;-1.180;2023-04-15T02:50:44;23.95;;;21.75;;
14326;SDS011;7247;53.330;-1.180;2023-04-15T02:53:12;23.50;;;21.30;;
14326;SDS011;7247;53.330;-1.180;2023-04-15T02:55:38;23.27;;;21.07;;
14326;SDS011;7247;53.330;-1.180;2023-04-15T02:58:05;24.15;;;21.75;;
14326;SDS011;7247;53.330;-1.180;2023-04-15T03:00:31;23.88;;;21.58;;
14326;SDS011;7247;53.330;-1.180;2023-04-15T03:03:00;23.45;;;21.20;;
14326;SDS011;7247;53.330;-1.180;2023-04-15T03:05:27;24.13;;;21.83;;
14326;SDS011;7247;53.330;-1.180;2023-04-15T03:07:53;24.13;;;21.75;;
14326;SDS011;7247;53.330;-1.180;2023-04-15T03:10:21;26.92;;;24.13;;
14326;SDS011;7247;53.330;-1.180;2023-04-15T03:12:48;29.10;;;26.10;;
14326;SDS011;7247;53.330;-1.180;2023-04-15T03:15:14;27.42;;;24.65;;
14326;SDS011;7247;53.330;-1.180;2023-04-15T03:17:41;26.27;;;23.58;;
14326;SDS011;7247;53.330;-1.180;2023-04-15T03:20:07;23.85;;;21.52;;
14326;SDS011;7247;53.330;-1.180;2023-04-15T03:22:34;24.35;;;21.95;;
14326;SDS011;7247;53.330;-1.180;2023-04-15T03:25:00;24.25;;;21.88;;
14326;SDS011;7247;53.330;-1.180;2023-04-15T03:27:28;22.15;;;20.05;;
14326;SDS011;7247;53.330;-1.180;2023-04-15T03:29:55;22.83;;;20.52;;
14326;SDS011;7247;53.330;-1.180;2023-04-15T03:32:21;21.50;;;19.42;;
14326;SDS011;7247;53.330;-1.180;2023-04-15T03:34:47;22.05;;;19.88;;
14326;SDS011;7247;53.330;-1.180;2023-04-15T03:37:14;22.40;;;20.30;;
14326;SDS011;7247;53.330;-1.180;2023-04-15T03:39:40;22.08;;;19.98;;
14326;SDS011;7247;53.330;-1.180;2023-04-15T03:42:07;21.85;;;19.83;;
14326;SDS011;7247;53.330;-1.180;2023-04-15T03:44:34;21.25;;;19.25;;
14326;SDS011;7247;53.330;-1.180;2023-04-15T03:47:01;21.43;;;19.43;;
14326;SDS011;7247;53.330;-1.180;2023-04-15T03:49:27;22.20;;;20.10;;
14326;SDS011;7247;53.330;-1.180;2023-04-15T03:51:53;22.58;;;20.45;;
14326;SDS011;7247;53.330;-1.180;2023-04-15T03:54:20;21.70;;;19.55;;
14326;SDS011;7247;53.330;-1.180;2023-04-15T03:56:46;21.48;;;19.38;;
14326;SDS011;7247;53.330;-1.180;2023-04-15T03:59:13;19.20;;;17.38;;
14326;SDS011;7247;53.330;-1.180;2023-04-15T04:01:41;18.90;;;17.20;;
14326;SDS011;7247;53.330;-1.180;2023-04-15T04:04:07;18.40;;;16.73;;
14326;SDS011;7247;53.330;-1.180;2023-04-15T04:06:33;17.67;;;16.00;;
14326;SDS011;7247;53.330;-1.180;2023-04-15T04:09:00;16.98;;;15.38;;
14326;SDS011;7247;53.330;-1.180;2023-04-15T04:11:26;16.67;;;15.13;;
14326;SDS011;7247;53.330;-1.180;2023-04-15T04:13:53;16.63;;;15.03;;
14326;SDS011;7247;53.330;-1.180;2023-04-15T04:16:19;16.13;;;14.55;;
14326;SDS011;7247;53.330;-1.180;2023-04-15T04:18:47;15.38;;;13.98;;
14326;SDS011;7247;53.330;-1.180;2023-04-15T04:21:13;17.00;;;15.30;;
14326;SDS011;7247;53.330;-1.180;2023-04-15T04:23:40;17.80;;;16.00;;
14326;SDS011;7247;53.330;-1.180;2023-04-15T04:26:06;18.00;;;16.27;;
14326;SDS011;7247;53.330;-1.180;2023-04-15T04:28:33;19.23;;;17.33;;
14326;SDS011;7247;53.330;-1.180;2023-04-15T04:31:00;19.42;;;17.52;;
14326;SDS011;7247;53.330;-1.180;2023-04-15T04:33:27;21.00;;;18.90;;
14326;SDS011;7247;53.330;-1.180;2023-04-15T04:35:54;22.10;;;19.77;;
14326;SDS011;7247;53.330;-1.180;2023-04-15T04:38:21;21.83;;;19.58;;
14326;SDS011;7247;53.330;-1.180;2023-04-15T04:40:47;22.52;;;20.17;;
14326;SDS011;7247;53.330;-1.180;2023-04-15T04:43:13;23.65;;;21.17;;
14326;SDS011;7247;53.330;-1.180;2023-04-15T04:45:40;23.33;;;20.83;;
14326;SDS011;7247;53.330;-1.180;2023-04-15T04:48:07;23.85;;;21.35;;
14326;SDS011;7247;53.330;-1.180;2023-04-15T04:50:34;22.73;;;20.35;;
14326;SDS011;7247;53.330;-1.180;2023-04-15T04:53:02;23.15;;;20.75;;
14326;SDS011;7247;53.330;-1.180;2023-04-15T04:55:28;23.15;;;20.83;;
14326;SDS011;7247;53.330;-1.180;2023-04-15T04:57:56;23.38;;;20.98;;
14326;SDS011;7247;53.330;-1.180;2023-04-15T05:00:22;22.48;;;20.08;;
14326;SDS011;7247;53.330;-1.180;2023-04-15T05:02:48;22.70;;;20.40;;
14326;SDS011;7247;53.330;-1.180;2023-04-15T05:05:15;22.65;;;20.25;;
14326;SDS011;7247;53.330;-1.180;2023-04-15T05:07:41;22.67;;;20.35;;
14326;SDS011;7247;53.330;-1.180;2023-04-15T05:10:09;22.10;;;19.90;;
14326;SDS011;7247;53.330;-1.180;2023-04-15T05:12:36;22.70;;;20.30;;
14326;SDS011;7247;53.330;-1.180;2023-04-15T05:15:03;23.10;;;20.73;;
14326;SDS011;7247;53.330;-1.180;2023-04-15T05:17:29;22.25;;;19.95;;
14326;SDS011;7247;53.330;-1.180;2023-04-15T05:19:57;22.75;;;20.35;;
14326;SDS011;7247;53.330;-1.180;2023-04-15T05:22:23;23.00;;;20.60;;
14326;SDS011;7247;53.330;-1.180;2023-04-15T05:24:50;23.03;;;20.63;;
14326;SDS011;7247;53.330;-1.180;2023-04-15T05:27:17;22.60;;;20.20;;
14326;SDS011;7247;53.330;-1.180;2023-04-15T05:29:44;22.42;;;20.17;;
14326;SDS011;7247;53.330;-1.180;2023-04-15T05:32:11;23.00;;;20.70;;
14326;SDS011;7247;53.330;-1.180;2023-04-15T05:34:37;23.63;;;21.23;;
14326;SDS011;7247;53.330;-1.180;2023-04-15T05:37:04;23.10;;;20.70;;
14326;SDS011;7247;53.330;-1.180;2023-04-15T05:39:30;23.48;;;21.08;;
14326;SDS011;7247;53.330;-1.180;2023-04-15T05:41:57;24.52;;;21.92;;
14326;SDS011;7247;53.330;-1.180;2023-04-15T05:44:25;25.05;;;22.42;;
14326;SDS011;7247;53.330;-1.180;2023-04-15T05:46:51;24.20;;;21.65;;
14326;SDS011;7247;53.330;-1.180;2023-04-15T05:49:18;24.25;;;21.60;;
14326;SDS011;7247;53.330;-1.180;2023-04-15T05:51:44;23.75;;;21.30;;
14326;SDS011;7247;53.330;-1.180;2023-04-15T05:54:12;24.20;;;21.40;;
14326;SDS011;7247;53.330;-1.180;2023-04-15T05:56:38;24.27;;;21.88;;
14326;SDS011;7247;53.330;-1.180;2023-04-15T05:59:05;23.95;;;21.55;;
14326;SDS011;7247;53.330;-1.180;2023-04-15T06:01:33;24.08;;;21.48;;
14326;SDS011;7247;53.330;-1.180;2023-04-15T06:04:00;23.52;;;21.13;;
14326;SDS011;7247;53.330;-1.180;2023-04-15T06:06:27;22.55;;;20.25;;
14326;SDS011;7247;53.330;-1.180;2023-04-15T06:08:53;24.63;;;21.58;;
14326;SDS011;7247;53.330;-1.180;2023-04-15T06:11:20;23.02;;;20.63;;
14326;SDS011;7247;53.330;-1.180;2023-04-15T06:13:46;23.30;;;20.90;;
14326;SDS011;7247;53.330;-1.180;2023-04-15T06:16:12;22.80;;;20.48;;
14326;SDS011;7247;53.330;-1.180;2023-04-15T06:18:40;23.88;;;21.38;;
14326;SDS011;7247;53.330;-1.180;2023-04-15T06:21:07;24.48;;;21.88;;
14326;SDS011;7247;53.330;-1.180;2023-04-15T06:23:33;23.27;;;20.98;;
14326;SDS011;7247;53.330;-1.180;2023-04-15T06:26:00;23.50;;;21.08;;
14326;SDS011;7247;53.330;-1.180;2023-04-15T06:28:26;23.60;;;20.65;;
14326;SDS011;7247;53.330;-1.180;2023-04-15T06:30:53;21.95;;;19.40;;
14326;SDS011;7247;53.330;-1.180;2023-04-15T06:33:19;22.73;;;20.30;;
14326;SDS011;7247;53.330;-1.180;2023-04-15T06:35:47;23.15;;;20.65;;
14326;SDS011;7247;53.330;-1.180;2023-04-15T06:38:15;21.90;;;19.60;;
14326;SDS011;7247;53.330;-1.180;2023-04-15T06:40:41;23.15;;;20.60;;
14326;SDS011;7247;53.330;-1.180;2023-04-15T06:43:07;23.42;;;20.83;;
14326;SDS011;7247;53.330;-1.180;2023-04-15T06:45:34;22.75;;;20.35;;
14326;SDS011;7247;53.330;-1.180;2023-04-15T06:48:00;23.73;;;21.15;;
14326;SDS011;7247;53.330;-1.180;2023-04-15T06:50:27;23.13;;;20.65;;
14326;SDS011;7247;53.330;-1.180;2023-04-15T06:52:54;24.42;;;21.83;;
14326;SDS011;7247;53.330;-1.180;2023-04-15T06:55:21;25.90;;;22.27;;
14326;SDS011;7247;53.330;-1.180;2023-04-15T06:57:47;25.88;;;22.35;;
14326;SDS011;7247;53.330;-1.180;2023-04-15T07:00:14;23.40;;;20.87;;
14326;SDS011;7247;53.330;-1.180;2023-04-15T07:02:40;24.33;;;21.73;;
14326;SDS011;7247;53.330;-1.180;2023-04-15T07:05:07;24.65;;;21.50;;
14326;SDS011;7247;53.330;-1.180;2023-04-15T07:07:34;24.67;;;21.42;;
14326;SDS011;7247;53.330;-1.180;2023-04-15T07:10:02;22.92;;;20.45;;
14326;SDS011;7247;53.330;-1.180;2023-04-15T07:12:29;23.30;;;20.80;;
14326;SDS011;7247;53.330;-1.180;2023-04-15T07:14:55;23.42;;;20.92;;
14326;SDS011;7247;53.330;-1.180;2023-04-15T07:17:22;22.45;;;20.17;;
14326;SDS011;7247;53.330;-1.180;2023-04-15T07:19:48;22.80;;;20.02;;
14326;SDS011;7247;53.330;-1.180;2023-04-15T07:22:15;23.52;;;21.02;;
14326;SDS011;7247;53.330;-1.180;2023-04-15T07:24:41;23.08;;;20.45;;
14326;SDS011;7247;53.330;-1.180;2023-04-15T07:27:09;21.90;;;19.63;;
14326;SDS011;7247;53.330;-1.180;2023-04-15T07:29:36;22.10;;;19.75;;
14326;SDS011;7247;53.330;-1.180;2023-04-15T07:32:02;22.02;;;19.60;;
14326;SDS011;7247;53.330;-1.180;2023-04-15T07:34:29;21.30;;;18.85;;
14326;SDS011;7247;53.330;-1.180;2023-04-15T07:36:55;21.33;;;19.02;;
14326;SDS011;7247;53.330;-1.180;2023-04-15T07:39:22;22.63;;;20.25;;
14326;SDS011;7247;53.330;-1.180;2023-04-15T07:41:48;21.63;;;19.27;;
14326;SDS011;7247;53.330;-1.180;2023-04-15T07:44:16;20.20;;;18.05;;
14326;SDS011;7247;53.330;-1.180;2023-04-15T07:46:42;20.65;;;18.38;;
14326;SDS011;7247;53.330;-1.180;2023-04-15T07:49:09;19.20;;;17.20;;
14326;SDS011;7247;53.330;-1.180;2023-04-15T07:51:36;21.20;;;18.30;;
14326;SDS011;7247;53.330;-1.180;2023-04-15T07:54:02;19.02;;;17.02;;
14326;SDS011;7247;53.330;-1.180;2023-04-15T07:56:29;19.00;;;16.63;;
14326;SDS011;7247;53.330;-1.180;2023-04-15T07:58:56;18.87;;;16.87;;
14326;SDS011;7247;53.330;-1.180;2023-04-15T08:01:24;19.92;;;17.48;;
14326;SDS011;7247;53.330;-1.180;2023-04-15T08:03:50;21.70;;;17.40;;
14326;SDS011;7247;53.330;-1.180;2023-04-15T08:06:17;19.30;;;17.35;;
14326;SDS011;7247;53.330;-1.180;2023-04-15T08:08:43;19.70;;;17.35;;
14326;SDS011;7247;53.330;-1.180;2023-04-15T08:11:11;19.53;;;17.43;;
14326;SDS011;7247;53.330;-1.180;2023-04-15T08:13:37;18.67;;;16.67;;
14326;SDS011;7247;53.330;-1.180;2023-04-15T08:16:15;18.27;;;16.38;;
14326;SDS011;7247;53.330;-1.180;2023-04-15T08:18:43;20.17;;;17.50;;
14326;SDS011;7247;53.330;-1.180;2023-04-15T08:21:10;19.48;;;17.45;;
14326;SDS011;7247;53.330;-1.180;2023-04-15T08:23:37;19.42;;;17.10;;
14326;SDS011;7247;53.330;-1.180;2023-04-15T08:26:04;20.52;;;18.30;;
14326;SDS011;7247;53.330;-1.180;2023-04-15T08:28:30;20.70;;;17.95;;
14326;SDS011;7247;53.330;-1.180;2023-04-15T08:30:57;19.30;;;17.15;;
14326;SDS011;7247;53.330;-1.180;2023-04-15T08:33:24;19.13;;;17.13;;
14326;SDS011;7247;53.330;-1.180;2023-04-15T08:35:52;18.88;;;16.98;;
14326;SDS011;7247;53.330;-1.180;2023-04-15T08:38:18;18.90;;;16.85;;
14326;SDS011;7247;53.330;-1.180;2023-04-15T08:40:44;18.58;;;16.58;;
14326;SDS011;7247;53.330;-1.180;2023-04-15T08:43:12;18.83;;;16.92;;
14326;SDS011;7247;53.330;-1.180;2023-04-15T08:45:41;18.55;;;16.65;;
14326;SDS011;7247;53.330;-1.180;2023-04-15T08:48:08;19.38;;;17.08;;
14326;SDS011;7247;53.330;-1.180;2023-04-15T08:50:35;17.88;;;16.02;;
14326;SDS011;7247;53.330;-1.180;2023-04-15T08:53:02;17.52;;;15.63;;
14326;SDS011;7247;53.330;-1.180;2023-04-15T08:55:29;17.50;;;15.70;;
14326;SDS011;7247;53.330;-1.180;2023-04-15T08:57:58;18.70;;;16.65;;
14326;SDS011;7247;53.330;-1.180;2023-04-15T09:00:24;17.08;;;15.23;;
14326;SDS011;7247;53.330;-1.180;2023-04-15T09:02:51;18.10;;;15.63;;
14326;SDS011;7247;53.330;-1.180;2023-04-15T09:05:18;17.40;;;15.50;;
14326;SDS011;7247;53.330;-1.180;2023-04-15T09:07:45;17.63;;;15.20;;
14326;SDS011;7247;53.330;-1.180;2023-04-15T09:10:13;18.33;;;15.30;;
14326;SDS011;7247;53.330;-1.180;2023-04-15T09:12:39;15.73;;;14.13;;
14326;SDS011;7247;53.330;-1.180;2023-04-15T09:15:06;15.95;;;14.15;;
14326;SDS011;7247;53.330;-1.180;2023-04-15T09:17:33;15.53;;;13.73;;
14326;SDS011;7247;53.330;-1.180;2023-04-15T09:20:06;15.45;;;13.30;;
14326;SDS011;7247;53.330;-1.180;2023-04-15T09:22:33;14.75;;;13.20;;
14326;SDS011;7247;53.330;-1.180;2023-04-15T09:24:59;14.10;;;12.30;;
14326;SDS011;7247;53.330;-1.180;2023-04-15T09:27:27;13.57;;;12.10;;
14326;SDS011;7247;53.330;-1.180;2023-04-15T09:29:54;12.43;;;11.02;;
14326;SDS011;7247;53.330;-1.180;2023-04-15T09:32:20;13.77;;;11.60;;
14326;SDS011;7247;53.330;-1.180;2023-04-15T09:34:48;14.75;;;11.25;;
14326;SDS011;7247;53.330;-1.180;2023-04-15T09:37:15;12.02;;;9.85;;
14326;SDS011;7247;53.330;-1.180;2023-04-15T09:39:45;14.25;;;10.80;;
14326;SDS011;7247;53.330;-1.180;2023-04-15T09:42:12;14.30;;;10.95;;
14326;SDS011;7247;53.330;-1.180;2023-04-15T09:44:40;11.85;;;10.05;;
14326;SDS011;7247;53.330;-1.180;2023-04-15T09:47:06;12.85;;;10.05;;
14326;SDS011;7247;53.330;-1.180;2023-04-15T09:49:33;12.10;;;10.07;;
14326;SDS011;7247;53.330;-1.180;2023-04-15T09:51:59;13.70;;;10.63;;
14326;SDS011;7247;53.330;-1.180;2023-04-15T09:54:31;12.27;;;10.30;;
14326;SDS011;7247;53.330;-1.180;2023-04-15T09:57:03;12.35;;;10.05;;
14326;SDS011;7247;53.330;-1.180;2023-04-15T09:59:29;13.15;;;10.65;;
14326;SDS011;7247;53.330;-1.180;2023-04-15T10:01:57;12.40;;;10.10;;
14326;SDS011;7247;53.330;-1.180;2023-04-15T10:04:24;12.13;;;10.73;;
14326;SDS011;7247;53.330;-1.180;2023-04-15T10:06:52;13.68;;;10.77;;
14326;SDS011;7247;53.330;-1.180;2023-04-15T10:09:19;13.10;;;10.60;;
14326;SDS011;7247;53.330;-1.180;2023-04-15T10:11:45;13.38;;;11.82;;
14326;SDS011;7247;53.330;-1.180;2023-04-15T10:14:13;14.15;;;10.93;;
14326;SDS011;7247;53.330;-1.180;2023-04-15T10:16:41;12.07;;;10.80;;
14326;SDS011;7247;53.330;-1.180;2023-04-15T10:19:14;13.85;;;11.35;;
14326;SDS011;7247;53.330;-1.180;2023-04-15T10:21:41;13.25;;;10.48;;
14326;SDS011;7247;53.330;-1.180;2023-04-15T10:24:09;12.88;;;10.15;;
14326;SDS011;7247;53.330;-1.180;2023-04-15T10:26:36;12.73;;;11.07;;
14326;SDS011;7247;53.330;-1.180;2023-04-15T10:29:03;12.60;;;11.00;;
14326;SDS011;7247;53.330;-1.180;2023-04-15T10:31:30;11.93;;;10.70;;
14326;SDS011;7247;53.330;-1.180;2023-04-15T10:33:56;13.68;;;11.27;;
14326;SDS011;7247;53.330;-1.180;2023-04-15T10:36:29;12.40;;;11.10;;
14326;SDS011;7247;53.330;-1.180;2023-04-15T10:38:55;18.30;;;11.57;;
14326;SDS011;7247;53.330;-1.180;2023-04-15T10:41:22;14.20;;;11.18;;
14326;SDS011;7247;53.330;-1.180;2023-04-15T10:43:53;12.30;;;11.00;;
14326;SDS011;7247;53.330;-1.180;2023-04-15T10:46:23;12.23;;;10.82;;
14326;SDS011;7247;53.330;-1.180;2023-04-15T10:48:51;11.85;;;10.65;;
14326;SDS011;7247;53.330;-1.180;2023-04-15T10:51:25;12.43;;;9.80;;
14326;SDS011;7247;53.330;-1.180;2023-04-15T10:53:56;13.10;;;9.82;;
14326;SDS011;7247;53.330;-1.180;2023-04-15T10:56:23;11.20;;;9.55;;
14326;SDS011;7247;53.330;-1.180;2023-04-15T10:58:49;11.80;;;9.02;;
14326;SDS011;7247;53.330;-1.180;2023-04-15T11:01:18;11.37;;;8.57;;
14326;SDS011;7247;53.330;-1.180;2023-04-15T11:03:44;10.85;;;8.43;;
14326;SDS011;7247;53.330;-1.180;2023-04-15T11:06:11;10.45;;;8.73;;
14326;SDS011;7247;53.330;-1.180;2023-04-15T11:08:58;10.10;;;8.55;;
14326;SDS011;7247;53.330;-1.180;2023-04-15T11:14:14;10.70;;;8.68;;
14326;SDS011;7247;53.330;-1.180;2023-04-15T11:16:41;9.35;;;7.90;;
14326;SDS011;7247;53.330;-1.180;2023-04-15T11:19:08;9.73;;;7.38;;
14326;SDS011;7247;53.330;-1.180;2023-04-15T11:21:35;11.40;;;7.50;;
14326;SDS011;7247;53.330;-1.180;2023-04-15T11:24:03;8.27;;;6.70;;
14326;SDS011;7247;53.330;-1.180;2023-04-15T11:26:29;9.90;;;6.78;;
14326;SDS011;7247;53.330;-1.180;2023-04-15T11:28:56;9.48;;;6.97;;
14326;SDS011;7247;53.330;-1.180;2023-04-15T11:31:25;7.95;;;6.10;;
14326;SDS011;7247;53.330;-1.180;2023-04-15T11:33:53;8.35;;;6.72;;
14326;SDS011;7247;53.330;-1.180;2023-04-15T11:36:20;10.80;;;7.72;;
14326;SDS011;7247;53.330;-1.180;2023-04-15T11:38:49;10.93;;;7.93;;
14326;SDS011;7247;53.330;-1.180;2023-04-15T11:41:20;7.93;;;6.28;;
14326;SDS011;7247;53.330;-1.180;2023-04-15T11:43:47;9.20;;;6.30;;
14326;SDS011;7247;53.330;-1.180;2023-04-15T11:46:13;8.98;;;6.50;;
14326;SDS011;7247;53.330;-1.180;2023-04-15T11:48:41;7.85;;;6.10;;
14326;SDS011;7247;53.330;-1.180;2023-04-15T11:51:07;9.15;;;5.25;;
14326;SDS011;7247;53.330;-1.180;2023-04-15T11:53:37;8.90;;;5.60;;
14326;SDS011;7247;53.330;-1.180;2023-04-15T11:56:05;6.82;;;5.55;;
14326;SDS011;7247;53.330;-1.180;2023-04-15T11:58:34;10.87;;;5.93;;
14326;SDS011;7247;53.330;-1.180;2023-04-15T12:01:01;8.15;;;5.57;;
14326;SDS011;7247;53.330;-1.180;2023-04-15T12:03:28;8.32;;;5.80;;
14326;SDS011;7247;53.330;-1.180;2023-04-15T12:06:02;9.80;;;6.28;;
14326;SDS011;7247;53.330;-1.180;2023-04-15T12:11:09;8.18;;;5.90;;
14326;SDS011;7247;53.330;-1.180;2023-04-15T12:13:37;9.02;;;5.50;;
14326;SDS011;7247;53.330;-1.180;2023-04-15T12:16:04;8.88;;;5.40;;
14326;SDS011;7247;53.330;-1.180;2023-04-15T12:18:30;9.48;;;5.50;;
14326;SDS011;7247;53.330;-1.180;2023-04-15T12:20:56;9.18;;;5.00;;
14326;SDS011;7247;53.330;-1.180;2023-04-15T12:23:29;8.77;;;5.00;;
14326;SDS011;7247;53.330;-1.180;2023-04-15T12:25:55;8.20;;;5.00;;
14326;SDS011;7247;53.330;-1.180;2023-04-15T12:28:22;8.15;;;5.20;;
14326;SDS011;7247;53.330;-1.180;2023-04-15T12:30:50;7.33;;;5.30;;
14326;SDS011;7247;53.330;-1.180;2023-04-15T12:33:16;10.50;;;5.37;;
14326;SDS011;7247;53.330;-1.180;2023-04-15T12:35:43;8.73;;;5.45;;
14326;SDS011;7247;53.330;-1.180;2023-04-15T12:38:09;9.27;;;5.40;;
14326;SDS011;7247;53.330;-1.180;2023-04-15T12:40:35;7.97;;;5.63;;
14326;SDS011;7247;53.330;-1.180;2023-04-15T12:43:02;9.05;;;5.88;;
14326;SDS011;7247;53.330;-1.180;2023-04-15T12:45:28;8.18;;;6.03;;
14326;SDS011;7247;53.330;-1.180;2023-04-15T12:47:56;10.07;;;6.03;;
14326;SDS011;7247;53.330;-1.180;2023-04-15T12:50:22;8.20;;;5.90;;
14326;SDS011;7247;53.330;-1.180;2023-04-15T12:52:49;7.60;;;6.00;;
14326;SDS011;7247;53.330;-1.180;2023-04-15T12:55:15;9.38;;;5.82;;
14326;SDS011;7247;53.330;-1.180;2023-04-15T12:57:42;8.35;;;5.65;;
14326;SDS011;7247;53.330;-1.180;2023-04-15T13:00:09;8.13;;;5.75;;
14326;SDS011;7247;53.330;-1.180;2023-04-15T13:02:35;7.13;;;5.40;;
14326;SDS011;7247;53.330;-1.180;2023-04-15T13:05:03;9.43;;;6.10;;
14326;SDS011;7247;53.330;-1.180;2023-04-15T13:07:30;9.45;;;5.90;;
14326;SDS011;7247;53.330;-1.180;2023-04-15T13:09:56;7.45;;;5.93;;
14326;SDS011;7247;53.330;-1.180;2023-04-15T13:12:23;9.68;;;5.90;;
14326;SDS011;7247;53.330;-1.180;2023-04-15T13:14:49;9.77;;;5.10;;
14326;SDS011;7247;53.330;-1.180;2023-04-15T13:17:16;8.65;;;5.65;;
14326;SDS011;7247;53.330;-1.180;2023-04-15T13:19:44;8.83;;;4.70;;
14326;SDS011;7247;53.330;-1.180;2023-04-15T13:22:12;10.00;;;5.27;;
14326;SDS011;7247;53.330;-1.180;2023-04-15T13:24:39;6.93;;;5.03;;
14326;SDS011;7247;53.330;-1.180;2023-04-15T13:27:05;10.07;;;5.13;;
14326;SDS011;7247;53.330;-1.180;2023-04-15T13:29:32;8.60;;;5.30;;
14326;SDS011;7247;53.330;-1.180;2023-04-15T13:31:58;8.20;;;5.20;;
14326;SDS011;7247;53.330;-1.180;2023-04-15T13:34:25;9.37;;;5.70;;
14326;SDS011;7247;53.330;-1.180;2023-04-15T13:36:51;10.03;;;5.40;;
14326;SDS011;7247;53.330;-1.180;2023-04-15T13:39:19;6.80;;;4.93;;
14326;SDS011;7247;53.330;-1.180;2023-04-15T13:41:46;6.93;;;5.23;;
14326;SDS011;7247;53.330;-1.180;2023-04-15T13:44:13;9.70;;;5.20;;
14326;SDS011;7247;53.330;-1.180;2023-04-15T13:46:39;7.87;;;5.60;;
14326;SDS011;7247;53.330;-1.180;2023-04-15T13:49:06;9.20;;;5.13;;
14326;SDS011;7247;53.330;-1.180;2023-04-15T13:51:33;8.80;;;5.80;;
14326;SDS011;7247;53.330;-1.180;2023-04-15T13:54:00;9.07;;;5.63;;
14326;SDS011;7247;53.330;-1.180;2023-04-15T13:56:28;9.70;;;5.80;;
14326;SDS011;7247;53.330;-1.180;2023-04-15T13:58:55;9.83;;;5.63;;
14326;SDS011;7247;53.330;-1.180;2023-04-15T14:01:23;11.77;;;5.60;;
14326;SDS011;7247;53.330;-1.180;2023-04-15T14:03:49;8.47;;;4.97;;
14326;SDS011;7247;53.330;-1.180;2023-04-15T14:06:16;8.50;;;6.03;;
14326;SDS011;7247;53.330;-1.180;2023-04-15T14:08:42;9.67;;;5.07;;
14326;SDS011;7247;53.330;-1.180;2023-04-15T14:11:08;11.70;;;5.33;;
14326;SDS011;7247;53.330;-1.180;2023-04-15T14:13:36;6.50;;;4.50;;
14326;SDS011;7247;53.330;-1.180;2023-04-15T14:16:03;9.63;;;5.40;;
14326;SDS011;7247;53.330;-1.180;2023-04-15T14:18:30;10.30;;;5.37;;
14326;SDS011;7247;53.330;-1.180;2023-04-15T14:20:56;10.40;;;5.27;;
14326;SDS011;7247;53.330;-1.180;2023-04-15T14:23:22;8.53;;;5.80;;
14326;SDS011;7247;53.330;-1.180;2023-04-15T14:25:49;8.67;;;5.30;;
14326;SDS011;7247;53.330;-1.180;2023-04-15T14:28:15;9.77;;;7.10;;
14326;SDS011;7247;53.330;-1.180;2023-04-15T14:30:43;8.53;;;5.07;;
14326;SDS011;7247;53.330;-1.180;2023-04-15T14:33:10;9.57;;;5.70;;